sensor_id;sensor_type;location;lat;lon;timestamp;P1;durP1;ratioP1;P2;durP2;ratioP2
78875;SDS011;68253;52.506;5.486;2023-04-24T00:00:56;3.78;;;1.00;;
78875;SDS011;68253;52.506;5.486;2023-04-24T00:03:24;2.55;;;0.90;;
78875;SDS011;68253;52.506;5.486;2023-04-24T00:05:56;2.20;;;0.80;;
78875;SDS011;68253;52.506;5.486;2023-04-24T00:08:22;3.83;;;0.70;;
78875;SDS011;68253;52.506;5.486;2023-04-24T00:10:49;2.63;;;0.90;;
78875;SDS011;68253;52.506;5.486;2023-04-24T00:13:15;1.80;;;0.80;;
78875;SDS011;68253;52.506;5.486;2023-04-24T00:15:41;1.73;;;0.90;;
78875;SDS011;68253;52.506;5.486;2023-04-24T00:18:07;1.90;;;0.70;;
78875;SDS011;68253;52.506;5.486;2023-04-24T00:20:34;1.95;;;0.70;;
78875;SDS011;68253;52.506;5.486;2023-04-24T00:23:01;3.55;;;0.90;;
78875;SDS011;68253;52.506;5.486;2023-04-24T00:25:27;3.45;;;1.00;;
78875;SDS011;68253;52.506;5.486;2023-04-24T00:27:53;5.15;;;1.13;;
78875;SDS011;68253;52.506;5.486;2023-04-24T00:30:19;3.80;;;1.33;;
78875;SDS011;68253;52.506;5.486;2023-04-24T00:32:46;3.40;;;1.38;;
78875;SDS011;68253;52.506;5.486;2023-04-24T00:35:12;3.47;;;1.40;;
78875;SDS011;68253;52.506;5.486;2023-04-24T00:37:38;4.60;;;1.42;;
78875;SDS011;68253;52.506;5.486;2023-04-24T00:40:07;3.97;;;1.50;;
78875;SDS011;68253;52.506;5.486;2023-04-24T00:42:33;5.10;;;1.80;;
78875;SDS011;68253;52.506;5.486;2023-04-24T00:45:00;5.93;;;2.03;;
78875;SDS011;68253;52.506;5.486;2023-04-24T00:47:27;6.72;;;2.45;;
78875;SDS011;68253;52.506;5.486;2023-04-24T00:49:54;5.13;;;1.63;;
78875;SDS011;68253;52.506;5.486;2023-04-24T00:52:20;6.05;;;2.20;;
78875;SDS011;68253;52.506;5.486;2023-04-24T00:54:49;6.75;;;2.35;;
78875;SDS011;68253;52.506;5.486;2023-04-24T00:57:15;8.07;;;2.30;;
78875;SDS011;68253;52.506;5.486;2023-04-24T00:59:43;8.57;;;3.70;;
78875;SDS011;68253;52.506;5.486;2023-04-24T01:02:10;6.25;;;2.20;;
78875;SDS011;68253;52.506;5.486;2023-04-24T01:04:37;8.43;;;3.60;;
78875;SDS011;68253;52.506;5.486;2023-04-24T01:07:04;7.75;;;2.63;;
78875;SDS011;68253;52.506;5.486;2023-04-24T01:09:36;7.05;;;2.45;;
78875;SDS011;68253;52.506;5.486;2023-04-24T01:12:07;9.27;;;4.20;;
78875;SDS011;68253;52.506;5.486;2023-04-24T01:14:37;6.47;;;2.50;;
78875;SDS011;68253;52.506;5.486;2023-04-24T01:17:03;8.70;;;3.10;;
78875;SDS011;68253;52.506;5.486;2023-04-24T01:19:30;7.68;;;3.22;;
78875;SDS011;68253;52.506;5.486;2023-04-24T01:21:58;7.70;;;2.65;;
78875;SDS011;68253;52.506;5.486;2023-04-24T01:24:26;8.02;;;3.38;;
78875;SDS011;68253;52.506;5.486;2023-04-24T01:26:52;8.48;;;3.38;;
78875;SDS011;68253;52.506;5.486;2023-04-24T01:29:19;8.23;;;3.30;;
78875;SDS011;68253;52.506;5.486;2023-04-24T01:31:45;8.10;;;3.30;;
78875;SDS011;68253;52.506;5.486;2023-04-24T01:34:11;8.30;;;3.33;;
78875;SDS011;68253;52.506;5.486;2023-04-24T01:36:38;7.60;;;2.72;;
78875;SDS011;68253;52.506;5.486;2023-04-24T01:39:05;7.45;;;2.70;;
78875;SDS011;68253;52.506;5.486;2023-04-24T01:41:32;7.68;;;2.78;;
78875;SDS011;68253;52.506;5.486;2023-04-24T01:43:59;6.10;;;2.40;;
78875;SDS011;68253;52.506;5.486;2023-04-24T01:46:25;8.52;;;2.95;;
78875;SDS011;68253;52.506;5.486;2023-04-24T01:48:51;6.30;;;1.40;;
78875;SDS011;68253;52.506;5.486;2023-04-24T01:51:19;3.70;;;0.80;;
78875;SDS011;68253;52.506;5.486;2023-04-24T01:53:45;1.30;;;0.50;;
78875;SDS011;68253;52.506;5.486;2023-04-24T01:56:11;3.33;;;0.68;;
78875;SDS011;68253;52.506;5.486;2023-04-24T01:58:37;0.90;;;0.40;;
78875;SDS011;68253;52.506;5.486;2023-04-24T02:01:05;2.33;;;0.32;;
78875;SDS011;68253;52.506;5.486;2023-04-24T02:03:32;1.27;;;0.40;;
78875;SDS011;68253;52.506;5.486;2023-04-24T02:05:58;1.17;;;0.30;;
78875;SDS011;68253;52.506;5.486;2023-04-24T02:08:24;1.73;;;0.30;;
78875;SDS011;68253;52.506;5.486;2023-04-24T02:10:50;0.77;;;0.30;;
78875;SDS011;68253;52.506;5.486;2023-04-24T02:13:17;0.38;;;0.20;;
78875;SDS011;68253;52.506;5.486;2023-04-24T02:15:43;0.70;;;0.30;;
78875;SDS011;68253;52.506;5.486;2023-04-24T02:18:09;1.40;;;0.50;;
78875;SDS011;68253;52.506;5.486;2023-04-24T02:20:37;2.15;;;0.50;;
78875;SDS011;68253;52.506;5.486;2023-04-24T02:23:03;1.83;;;0.50;;
78875;SDS011;68253;52.506;5.486;2023-04-24T02:25:29;4.93;;;0.77;;
78875;SDS011;68253;52.506;5.486;2023-04-24T02:27:55;2.88;;;0.60;;
78875;SDS011;68253;52.506;5.486;2023-04-24T02:30:21;5.10;;;0.68;;
78875;SDS011;68253;52.506;5.486;2023-04-24T02:32:48;2.25;;;0.60;;
78875;SDS011;68253;52.506;5.486;2023-04-24T02:35:14;3.08;;;0.38;;
78875;SDS011;68253;52.506;5.486;2023-04-24T02:37:40;0.93;;;0.32;;
78875;SDS011;68253;52.506;5.486;2023-04-24T02:40:07;1.70;;;0.35;;
78875;SDS011;68253;52.506;5.486;2023-04-24T02:42:34;0.82;;;0.28;;
78875;SDS011;68253;52.506;5.486;2023-04-24T02:45:00;0.40;;;0.30;;
78875;SDS011;68253;52.506;5.486;2023-04-24T02:47:26;0.40;;;0.20;;
78875;SDS011;68253;52.506;5.486;2023-04-24T02:49:52;1.35;;;0.32;;
78875;SDS011;68253;52.506;5.486;2023-04-24T02:52:19;0.38;;;0.17;;
78875;SDS011;68253;52.506;5.486;2023-04-24T02:54:46;0.55;;;0.20;;
78875;SDS011;68253;52.506;5.486;2023-04-24T02:57:12;1.15;;;0.30;;
78875;SDS011;68253;52.506;5.486;2023-04-24T02:59:40;1.73;;;0.57;;
78875;SDS011;68253;52.506;5.486;2023-04-24T03:02:06;2.45;;;0.30;;
78875;SDS011;68253;52.506;5.486;2023-04-24T03:04:32;1.80;;;0.32;;
78875;SDS011;68253;52.506;5.486;2023-04-24T03:06:59;2.25;;;0.22;;
78875;SDS011;68253;52.506;5.486;2023-04-24T03:09:25;2.30;;;0.30;;
78875;SDS011;68253;52.506;5.486;2023-04-24T03:11:51;0.73;;;0.30;;
78875;SDS011;68253;52.506;5.486;2023-04-24T03:14:17;2.47;;;0.60;;
78875;SDS011;68253;52.506;5.486;2023-04-24T03:16:43;4.05;;;0.40;;
78875;SDS011;68253;52.506;5.486;2023-04-24T03:19:09;3.08;;;0.50;;
78875;SDS011;68253;52.506;5.486;2023-04-24T03:21:43;1.90;;;0.28;;
78875;SDS011;68253;52.506;5.486;2023-04-24T03:24:10;3.42;;;0.30;;
78875;SDS011;68253;52.506;5.486;2023-04-24T03:26:37;2.38;;;0.50;;
78875;SDS011;68253;52.506;5.486;2023-04-24T03:29:16;1.52;;;0.30;;
78875;SDS011;68253;52.506;5.486;2023-04-24T03:31:42;2.00;;;0.63;;
78875;SDS011;68253;52.506;5.486;2023-04-24T03:34:09;1.83;;;0.60;;
78875;SDS011;68253;52.506;5.486;2023-04-24T03:36:36;1.58;;;0.45;;
78875;SDS011;68253;52.506;5.486;2023-04-24T03:39:03;3.38;;;0.50;;
78875;SDS011;68253;52.506;5.486;2023-04-24T03:41:35;3.13;;;0.57;;
78875;SDS011;68253;52.506;5.486;2023-04-24T03:44:08;2.05;;;0.63;;
78875;SDS011;68253;52.506;5.486;2023-04-24T03:46:35;3.28;;;0.43;;
78875;SDS011;68253;52.506;5.486;2023-04-24T03:49:01;1.23;;;0.30;;
78875;SDS011;68253;52.506;5.486;2023-04-24T03:51:32;1.45;;;0.30;;
78875;SDS011;68253;52.506;5.486;2023-04-24T03:54:09;1.92;;;0.40;;
78875;SDS011;68253;52.506;5.486;2023-04-24T03:56:38;1.23;;;0.40;;
78875;SDS011;68253;52.506;5.486;2023-04-24T03:59:04;0.45;;;0.15;;
78875;SDS011;68253;52.506;5.486;2023-04-24T04:01:31;0.32;;;0.17;;
78875;SDS011;68253;52.506;5.486;2023-04-24T04:04:01;0.63;;;0.20;;
78875;SDS011;68253;52.506;5.486;2023-04-24T04:06:29;0.22;;;0.20;;
78875;SDS011;68253;52.506;5.486;2023-04-24T04:08:59;0.43;;;0.10;;
78875;SDS011;68253;52.506;5.486;2023-04-24T04:11:26;0.40;;;0.20;;
78875;SDS011;68253;52.506;5.486;2023-04-24T04:13:52;1.85;;;0.32;;
78875;SDS011;68253;52.506;5.486;2023-04-24T04:16:20;0.77;;;0.38;;
78875;SDS011;68253;52.506;5.486;2023-04-24T04:18:48;1.23;;;0.32;;
78875;SDS011;68253;52.506;5.486;2023-04-24T04:21:15;1.52;;;0.50;;
78875;SDS011;68253;52.506;5.486;2023-04-24T04:23:41;0.95;;;0.43;;
78875;SDS011;68253;52.506;5.486;2023-04-24T04:26:20;2.50;;;0.55;;
78875;SDS011;68253;52.506;5.486;2023-04-24T04:29:18;2.78;;;0.43;;
78875;SDS011;68253;52.506;5.486;2023-04-24T04:31:47;2.45;;;0.60;;
78875;SDS011;68253;52.506;5.486;2023-04-24T04:34:14;4.18;;;0.80;;
78875;SDS011;68253;52.506;5.486;2023-04-24T04:36:41;2.08;;;0.63;;
78875;SDS011;68253;52.506;5.486;2023-04-24T04:39:21;2.83;;;0.60;;
78875;SDS011;68253;52.506;5.486;2023-04-24T04:41:58;1.08;;;0.50;;
78875;SDS011;68253;52.506;5.486;2023-04-24T04:44:31;2.75;;;0.80;;
78875;SDS011;68253;52.506;5.486;2023-04-24T04:46:59;2.00;;;0.50;;
78875;SDS011;68253;52.506;5.486;2023-04-24T04:51:56;1.23;;;0.40;;
78875;SDS011;68253;52.506;5.486;2023-04-24T04:54:24;2.30;;;0.60;;
78875;SDS011;68253;52.506;5.486;2023-04-24T04:56:51;3.83;;;0.63;;
78875;SDS011;68253;52.506;5.486;2023-04-24T04:59:17;3.33;;;0.70;;
78875;SDS011;68253;52.506;5.486;2023-04-24T05:01:43;4.43;;;0.80;;
78875;SDS011;68253;52.506;5.486;2023-04-24T05:04:12;2.28;;;0.50;;
78875;SDS011;68253;52.506;5.486;2023-04-24T05:06:38;1.88;;;0.50;;
78875;SDS011;68253;52.506;5.486;2023-04-24T05:09:05;1.60;;;0.50;;
78875;SDS011;68253;52.506;5.486;2023-04-24T05:11:39;2.58;;;0.70;;
78875;SDS011;68253;52.506;5.486;2023-04-24T05:14:05;2.15;;;0.60;;
78875;SDS011;68253;52.506;5.486;2023-04-24T05:16:35;3.45;;;0.60;;
78875;SDS011;68253;52.506;5.486;2023-04-24T05:19:03;2.50;;;0.80;;
78875;SDS011;68253;52.506;5.486;2023-04-24T05:21:34;3.90;;;0.88;;
78875;SDS011;68253;52.506;5.486;2023-04-24T05:24:00;3.67;;;0.73;;
78875;SDS011;68253;52.506;5.486;2023-04-24T05:26:45;1.83;;;0.57;;
78875;SDS011;68253;52.506;5.486;2023-04-24T05:29:14;1.92;;;0.70;;
78875;SDS011;68253;52.506;5.486;2023-04-24T05:31:41;2.63;;;0.80;;
78875;SDS011;68253;52.506;5.486;2023-04-24T05:34:08;2.15;;;0.63;;
78875;SDS011;68253;52.506;5.486;2023-04-24T05:36:38;4.80;;;1.08;;
78875;SDS011;68253;52.506;5.486;2023-04-24T05:39:05;3.45;;;0.90;;
78875;SDS011;68253;52.506;5.486;2023-04-24T05:41:31;4.25;;;1.10;;
78875;SDS011;68253;52.506;5.486;2023-04-24T05:43:57;3.25;;;0.93;;
78875;SDS011;68253;52.506;5.486;2023-04-24T05:46:23;5.68;;;1.00;;
78875;SDS011;68253;52.506;5.486;2023-04-24T05:48:49;2.65;;;0.65;;
78875;SDS011;68253;52.506;5.486;2023-04-24T05:51:15;2.47;;;0.70;;
78875;SDS011;68253;52.506;5.486;2023-04-24T05:53:41;5.63;;;1.20;;
78875;SDS011;68253;52.506;5.486;2023-04-24T05:56:08;5.00;;;0.80;;
78875;SDS011;68253;52.506;5.486;2023-04-24T05:58:35;4.25;;;0.93;;
78875;SDS011;68253;52.506;5.486;2023-04-24T06:01:03;2.85;;;0.60;;
78875;SDS011;68253;52.506;5.486;2023-04-24T06:03:30;5.65;;;1.42;;
78875;SDS011;68253;52.506;5.486;2023-04-24T06:05:56;5.70;;;1.15;;
78875;SDS011;68253;52.506;5.486;2023-04-24T06:08:23;3.60;;;1.00;;
78875;SDS011;68253;52.506;5.486;2023-04-24T06:10:49;5.85;;;1.20;;
78875;SDS011;68253;52.506;5.486;2023-04-24T06:13:18;3.35;;;0.77;;
78875;SDS011;68253;52.506;5.486;2023-04-24T06:16:00;4.20;;;1.00;;
78875;SDS011;68253;52.506;5.486;2023-04-24T06:18:32;6.13;;;1.92;;
78875;SDS011;68253;52.506;5.486;2023-04-24T06:20:59;10.63;;;3.30;;
78875;SDS011;68253;52.506;5.486;2023-04-24T06:23:25;12.18;;;3.67;;
78875;SDS011;68253;52.506;5.486;2023-04-24T06:25:51;15.27;;;5.85;;
78875;SDS011;68253;52.506;5.486;2023-04-24T06:28:17;18.65;;;7.55;;
78875;SDS011;68253;52.506;5.486;2023-04-24T06:30:44;14.10;;;5.72;;
78875;SDS011;68253;52.506;5.486;2023-04-24T06:33:11;15.40;;;5.88;;
78875;SDS011;68253;52.506;5.486;2023-04-24T06:35:37;17.58;;;7.25;;
78875;SDS011;68253;52.506;5.486;2023-04-24T06:38:03;12.63;;;4.38;;
78875;SDS011;68253;52.506;5.486;2023-04-24T06:40:30;9.80;;;3.42;;
78875;SDS011;68253;52.506;5.486;2023-04-24T06:42:56;10.48;;;3.80;;
78875;SDS011;68253;52.506;5.486;2023-04-24T06:45:23;15.23;;;4.80;;
78875;SDS011;68253;52.506;5.486;2023-04-24T06:47:50;10.73;;;3.83;;
78875;SDS011;68253;52.506;5.486;2023-04-24T06:50:16;8.10;;;2.63;;
78875;SDS011;68253;52.506;5.486;2023-04-24T06:52:42;15.25;;;6.28;;
78875;SDS011;68253;52.506;5.486;2023-04-24T06:55:08;21.25;;;9.55;;
78875;SDS011;68253;52.506;5.486;2023-04-24T06:57:35;37.53;;;16.10;;
78875;SDS011;68253;52.506;5.486;2023-04-24T07:00:02;23.27;;;11.23;;
78875;SDS011;68253;52.506;5.486;2023-04-24T07:02:30;15.02;;;9.38;;
78875;SDS011;68253;52.506;5.486;2023-04-24T07:04:56;12.77;;;5.28;;
78875;SDS011;68253;52.506;5.486;2023-04-24T07:07:22;17.75;;;6.70;;
78875;SDS011;68253;52.506;5.486;2023-04-24T07:09:49;13.65;;;7.15;;
78875;SDS011;68253;52.506;5.486;2023-04-24T07:12:16;11.27;;;4.80;;
78875;SDS011;68253;52.506;5.486;2023-04-24T07:14:42;14.73;;;6.80;;
78875;SDS011;68253;52.506;5.486;2023-04-24T07:17:09;14.43;;;5.70;;
78875;SDS011;68253;52.506;5.486;2023-04-24T07:19:35;12.50;;;5.18;;
78875;SDS011;68253;52.506;5.486;2023-04-24T07:22:01;11.23;;;4.82;;
78875;SDS011;68253;52.506;5.486;2023-04-24T07:24:28;14.00;;;5.40;;
78875;SDS011;68253;52.506;5.486;2023-04-24T07:26:57;10.30;;;4.75;;
78875;SDS011;68253;52.506;5.486;2023-04-24T07:29:23;16.30;;;6.75;;
78875;SDS011;68253;52.506;5.486;2023-04-24T07:31:50;15.55;;;5.97;;
78875;SDS011;68253;52.506;5.486;2023-04-24T07:34:16;14.15;;;4.68;;
78875;SDS011;68253;52.506;5.486;2023-04-24T07:36:42;13.90;;;5.70;;
78875;SDS011;68253;52.506;5.486;2023-04-24T07:39:08;10.82;;;4.03;;
78875;SDS011;68253;52.506;5.486;2023-04-24T07:41:35;11.38;;;4.72;;
78875;SDS011;68253;52.506;5.486;2023-04-24T07:44:01;10.00;;;3.85;;
78875;SDS011;68253;52.506;5.486;2023-04-24T07:46:27;10.73;;;3.38;;
78875;SDS011;68253;52.506;5.486;2023-04-24T07:48:55;14.27;;;4.47;;
78875;SDS011;68253;52.506;5.486;2023-04-24T07:51:21;9.90;;;3.92;;
78875;SDS011;68253;52.506;5.486;2023-04-24T07:53:47;10.68;;;3.15;;
78875;SDS011;68253;52.506;5.486;2023-04-24T07:56:13;11.52;;;3.72;;
78875;SDS011;68253;52.506;5.486;2023-04-24T07:58:40;10.38;;;3.65;;
78875;SDS011;68253;52.506;5.486;2023-04-24T08:01:06;11.35;;;4.20;;
78875;SDS011;68253;52.506;5.486;2023-04-24T08:03:32;10.98;;;4.07;;
78875;SDS011;68253;52.506;5.486;2023-04-24T08:05:58;11.02;;;3.33;;
78875;SDS011;68253;52.506;5.486;2023-04-24T08:08:24;11.77;;;3.55;;
78875;SDS011;68253;52.506;5.486;2023-04-24T08:10:51;12.27;;;3.88;;
78875;SDS011;68253;52.506;5.486;2023-04-24T08:13:17;12.05;;;4.03;;
78875;SDS011;68253;52.506;5.486;2023-04-24T08:15:43;8.95;;;2.80;;
78875;SDS011;68253;52.506;5.486;2023-04-24T08:18:09;10.68;;;3.63;;
78875;SDS011;68253;52.506;5.486;2023-04-24T08:20:37;14.20;;;4.20;;
78875;SDS011;68253;52.506;5.486;2023-04-24T08:23:03;13.52;;;3.55;;
78875;SDS011;68253;52.506;5.486;2023-04-24T08:25:29;11.32;;;3.17;;
78875;SDS011;68253;52.506;5.486;2023-04-24T08:27:56;13.63;;;3.75;;
78875;SDS011;68253;52.506;5.486;2023-04-24T08:30:22;12.57;;;3.40;;
78875;SDS011;68253;52.506;5.486;2023-04-24T08:32:48;33.47;;;13.40;;
78875;SDS011;68253;52.506;5.486;2023-04-24T08:35:14;26.17;;;7.97;;
78875;SDS011;68253;52.506;5.486;2023-04-24T08:37:41;48.70;;;16.17;;
78875;SDS011;68253;52.506;5.486;2023-04-24T08:40:12;42.55;;;14.95;;
78875;SDS011;68253;52.506;5.486;2023-04-24T08:42:43;16.98;;;7.18;;
78875;SDS011;68253;52.506;5.486;2023-04-24T08:47:37;12.70;;;4.13;;
78875;SDS011;68253;52.506;5.486;2023-04-24T08:50:05;11.65;;;3.75;;
78875;SDS011;68253;52.506;5.486;2023-04-24T08:52:33;10.02;;;3.10;;
78875;SDS011;68253;52.506;5.486;2023-04-24T08:55:00;12.07;;;3.20;;
78875;SDS011;68253;52.506;5.486;2023-04-24T08:57:27;12.55;;;2.78;;
78875;SDS011;68253;52.506;5.486;2023-04-24T08:59:54;10.90;;;2.75;;
78875;SDS011;68253;52.506;5.486;2023-04-24T09:02:20;9.10;;;2.42;;
78875;SDS011;68253;52.506;5.486;2023-04-24T09:04:47;11.57;;;2.13;;
78875;SDS011;68253;52.506;5.486;2023-04-24T09:07:14;10.32;;;1.90;;
78875;SDS011;68253;52.506;5.486;2023-04-24T09:09:42;13.45;;;2.20;;
78875;SDS011;68253;52.506;5.486;2023-04-24T09:12:09;11.65;;;1.73;;
78875;SDS011;68253;52.506;5.486;2023-04-24T09:14:36;13.15;;;2.03;;
78875;SDS011;68253;52.506;5.486;2023-04-24T09:17:06;11.25;;;2.10;;
78875;SDS011;68253;52.506;5.486;2023-04-24T09:19:32;10.38;;;1.58;;
78875;SDS011;68253;52.506;5.486;2023-04-24T09:21:58;7.32;;;1.65;;
78875;SDS011;68253;52.506;5.486;2023-04-24T09:24:24;11.23;;;2.05;;
78875;SDS011;68253;52.506;5.486;2023-04-24T09:26:57;10.57;;;1.42;;
78875;SDS011;68253;52.506;5.486;2023-04-24T09:29:24;9.57;;;1.55;;
78875;SDS011;68253;52.506;5.486;2023-04-24T09:31:50;8.85;;;1.33;;
78875;SDS011;68253;52.506;5.486;2023-04-24T09:34:24;12.60;;;1.67;;
78875;SDS011;68253;52.506;5.486;2023-04-24T09:36:52;8.98;;;1.27;;
78875;SDS011;68253;52.506;5.486;2023-04-24T09:39:19;9.45;;;1.45;;
78875;SDS011;68253;52.506;5.486;2023-04-24T09:41:48;10.57;;;1.65;;
78875;SDS011;68253;52.506;5.486;2023-04-24T09:44:16;9.05;;;1.52;;
78875;SDS011;68253;52.506;5.486;2023-04-24T09:46:49;9.02;;;1.50;;
78875;SDS011;68253;52.506;5.486;2023-04-24T09:49:22;11.77;;;1.60;;
78875;SDS011;68253;52.506;5.486;2023-04-24T09:52:05;14.10;;;3.40;;
78875;SDS011;68253;52.506;5.486;2023-04-24T09:54:33;11.60;;;2.05;;
78875;SDS011;68253;52.506;5.486;2023-04-24T09:56:59;10.15;;;1.50;;
78875;SDS011;68253;52.506;5.486;2023-04-24T09:59:28;10.20;;;1.52;;
78875;SDS011;68253;52.506;5.486;2023-04-24T10:01:55;8.43;;;1.48;;
78875;SDS011;68253;52.506;5.486;2023-04-24T10:04:22;11.55;;;3.63;;
78875;SDS011;68253;52.506;5.486;2023-04-24T10:06:50;7.25;;;1.80;;
78875;SDS011;68253;52.506;5.486;2023-04-24T10:09:19;9.15;;;2.70;;
78875;SDS011;68253;52.506;5.486;2023-04-24T10:11:47;11.10;;;3.15;;
78875;SDS011;68253;52.506;5.486;2023-04-24T10:14:15;8.73;;;1.83;;
78875;SDS011;68253;52.506;5.486;2023-04-24T10:16:46;7.13;;;1.67;;
78875;SDS011;68253;52.506;5.486;2023-04-24T10:19:13;7.30;;;1.40;;
78875;SDS011;68253;52.506;5.486;2023-04-24T10:21:41;8.20;;;1.60;;
78875;SDS011;68253;52.506;5.486;2023-04-24T10:24:12;5.80;;;1.10;;
78875;SDS011;68253;52.506;5.486;2023-04-24T10:26:43;5.60;;;1.20;;
78875;SDS011;68253;52.506;5.486;2023-04-24T10:29:11;6.68;;;1.10;;
78875;SDS011;68253;52.506;5.486;2023-04-24T10:31:39;7.57;;;1.05;;
78875;SDS011;68253;52.506;5.486;2023-04-24T10:34:05;5.25;;;0.95;;
78875;SDS011;68253;52.506;5.486;2023-04-24T10:36:33;6.80;;;1.17;;
78875;SDS011;68253;52.506;5.486;2023-04-24T10:39:01;4.45;;;0.80;;
78875;SDS011;68253;52.506;5.486;2023-04-24T10:41:32;7.25;;;1.13;;
78875;SDS011;68253;52.506;5.486;2023-04-24T10:44:08;5.18;;;0.90;;
78875;SDS011;68253;52.506;5.486;2023-04-24T10:46:38;6.53;;;0.82;;
78875;SDS011;68253;52.506;5.486;2023-04-24T10:49:07;6.45;;;1.30;;
78875;SDS011;68253;52.506;5.486;2023-04-24T10:51:46;3.45;;;0.90;;
78875;SDS011;68253;52.506;5.486;2023-04-24T10:54:26;5.60;;;1.00;;
78875;SDS011;68253;52.506;5.486;2023-04-24T11:02:40;5.85;;;0.63;;
78875;SDS011;68253;52.506;5.486;2023-04-24T11:05:09;5.13;;;0.65;;
78875;SDS011;68253;52.506;5.486;2023-04-24T11:10:45;5.65;;;0.70;;
78875;SDS011;68253;52.506;5.486;2023-04-24T11:13:15;3.13;;;0.50;;
78875;SDS011;68253;52.506;5.486;2023-04-24T11:15:42;3.80;;;0.40;;
78875;SDS011;68253;52.506;5.486;2023-04-24T11:18:13;4.20;;;0.50;;
78875;SDS011;68253;52.506;5.486;2023-04-24T11:20:44;7.75;;;0.90;;
78875;SDS011;68253;52.506;5.486;2023-04-24T11:25:37;4.88;;;0.57;;
78875;SDS011;68253;52.506;5.486;2023-04-24T11:28:04;7.57;;;1.20;;
78875;SDS011;68253;52.506;5.486;2023-04-24T11:30:31;7.00;;;0.73;;
78875;SDS011;68253;52.506;5.486;2023-04-24T11:33:02;6.70;;;0.80;;
78875;SDS011;68253;52.506;5.486;2023-04-24T11:35:30;6.20;;;0.65;;
78875;SDS011;68253;52.506;5.486;2023-04-24T11:38:03;6.32;;;0.77;;
78875;SDS011;68253;52.506;5.486;2023-04-24T11:40:30;5.47;;;0.60;;
78875;SDS011;68253;52.506;5.486;2023-04-24T11:42:59;3.65;;;0.55;;
78875;SDS011;68253;52.506;5.486;2023-04-24T11:45:26;5.70;;;0.65;;
78875;SDS011;68253;52.506;5.486;2023-04-24T11:47:53;4.20;;;0.63;;
78875;SDS011;68253;52.506;5.486;2023-04-24T11:50:21;5.50;;;0.50;;
78875;SDS011;68253;52.506;5.486;2023-04-24T11:52:51;5.20;;;0.50;;
78875;SDS011;68253;52.506;5.486;2023-04-24T12:00:17;3.78;;;0.63;;
78875;SDS011;68253;52.506;5.486;2023-04-24T12:03:06;5.10;;;0.82;;
78875;SDS011;68253;52.506;5.486;2023-04-24T12:05:37;3.40;;;0.50;;
78875;SDS011;68253;52.506;5.486;2023-04-24T12:08:04;2.38;;;0.47;;
78875;SDS011;68253;52.506;5.486;2023-04-24T12:10:31;6.50;;;0.85;;
78875;SDS011;68253;52.506;5.486;2023-04-24T12:12:58;7.38;;;0.73;;
78875;SDS011;68253;52.506;5.486;2023-04-24T12:15:25;4.07;;;0.70;;
78875;SDS011;68253;52.506;5.486;2023-04-24T12:17:53;2.38;;;0.50;;
78875;SDS011;68253;52.506;5.486;2023-04-24T12:20:30;4.15;;;0.40;;
78875;SDS011;68253;52.506;5.486;2023-04-24T12:22:58;4.10;;;0.50;;
78875;SDS011;68253;52.506;5.486;2023-04-24T12:25:26;6.47;;;0.70;;
78875;SDS011;68253;52.506;5.486;2023-04-24T12:30:29;5.55;;;0.60;;
78875;SDS011;68253;52.506;5.486;2023-04-24T12:33:05;6.85;;;0.85;;
78875;SDS011;68253;52.506;5.486;2023-04-24T12:35:31;5.25;;;0.70;;
78875;SDS011;68253;52.506;5.486;2023-04-24T12:38:05;4.70;;;0.70;;
78875;SDS011;68253;52.506;5.486;2023-04-24T12:40:33;4.68;;;0.63;;
78875;SDS011;68253;52.506;5.486;2023-04-24T12:42:59;6.00;;;0.82;;
78875;SDS011;68253;52.506;5.486;2023-04-24T12:45:25;6.93;;;0.73;;
78875;SDS011;68253;52.506;5.486;2023-04-24T12:47:53;6.82;;;1.23;;
78875;SDS011;68253;52.506;5.486;2023-04-24T12:50:19;6.32;;;0.73;;
78875;SDS011;68253;52.506;5.486;2023-04-24T12:52:45;6.38;;;1.25;;
78875;SDS011;68253;52.506;5.486;2023-04-24T12:55:11;6.80;;;0.90;;
78875;SDS011;68253;52.506;5.486;2023-04-24T12:57:38;5.28;;;0.85;;
78875;SDS011;68253;52.506;5.486;2023-04-24T13:00:06;5.35;;;0.68;;
78875;SDS011;68253;52.506;5.486;2023-04-24T13:02:33;7.00;;;1.08;;
78875;SDS011;68253;52.506;5.486;2023-04-24T13:04:59;7.22;;;1.30;;
78875;SDS011;68253;52.506;5.486;2023-04-24T13:07:27;5.13;;;1.05;;
78875;SDS011;68253;52.506;5.486;2023-04-24T13:09:53;6.20;;;0.82;;
78875;SDS011;68253;52.506;5.486;2023-04-24T13:12:20;5.68;;;0.65;;
78875;SDS011;68253;52.506;5.486;2023-04-24T13:14:48;7.38;;;0.80;;
78875;SDS011;68253;52.506;5.486;2023-04-24T13:17:14;8.52;;;0.88;;
78875;SDS011;68253;52.506;5.486;2023-04-24T13:19:41;5.28;;;0.77;;
78875;SDS011;68253;52.506;5.486;2023-04-24T13:22:09;6.93;;;0.80;;
78875;SDS011;68253;52.506;5.486;2023-04-24T13:24:36;8.18;;;1.10;;
78875;SDS011;68253;52.506;5.486;2023-04-24T13:27:03;6.22;;;1.15;;
78875;SDS011;68253;52.506;5.486;2023-04-24T13:29:29;8.35;;;1.20;;
78875;SDS011;68253;52.506;5.486;2023-04-24T13:31:55;13.27;;;1.27;;
78875;SDS011;68253;52.506;5.486;2023-04-24T13:34:25;9.13;;;1.05;;
78875;SDS011;68253;52.506;5.486;2023-04-24T13:36:52;6.65;;;1.20;;
78875;SDS011;68253;52.506;5.486;2023-04-24T13:39:19;9.35;;;1.80;;
78875;SDS011;68253;52.506;5.486;2023-04-24T13:41:46;7.60;;;1.15;;
78875;SDS011;68253;52.506;5.486;2023-04-24T13:44:14;12.10;;;1.35;;
78875;SDS011;68253;52.506;5.486;2023-04-24T13:46:41;14.02;;;2.05;;
78875;SDS011;68253;52.506;5.486;2023-04-24T13:49:09;13.25;;;2.03;;
78875;SDS011;68253;52.506;5.486;2023-04-24T13:51:35;8.50;;;1.30;;
78875;SDS011;68253;52.506;5.486;2023-04-24T13:54:01;16.77;;;1.77;;
78875;SDS011;68253;52.506;5.486;2023-04-24T13:56:27;12.50;;;1.77;;
78875;SDS011;68253;52.506;5.486;2023-04-24T13:58:53;7.53;;;1.17;;
78875;SDS011;68253;52.506;5.486;2023-04-24T14:01:20;8.15;;;1.30;;
78875;SDS011;68253;52.506;5.486;2023-04-24T14:03:53;11.32;;;2.25;;
78875;SDS011;68253;52.506;5.486;2023-04-24T14:06:21;14.18;;;1.73;;
78875;SDS011;68253;52.506;5.486;2023-04-24T14:08:48;14.18;;;2.22;;
78875;SDS011;68253;52.506;5.486;2023-04-24T14:11:16;9.80;;;1.70;;
78875;SDS011;68253;52.506;5.486;2023-04-24T14:13:42;13.43;;;3.15;;
78875;SDS011;68253;52.506;5.486;2023-04-24T14:16:09;10.60;;;1.80;;
78875;SDS011;68253;52.506;5.486;2023-04-24T14:18:36;10.15;;;1.50;;
78875;SDS011;68253;52.506;5.486;2023-04-24T14:21:02;11.93;;;1.73;;
78875;SDS011;68253;52.506;5.486;2023-04-24T14:23:29;11.68;;;1.63;;
78875;SDS011;68253;52.506;5.486;2023-04-24T14:25:56;11.93;;;1.67;;
78875;SDS011;68253;52.506;5.486;2023-04-24T14:28:23;15.15;;;1.98;;
78875;SDS011;68253;52.506;5.486;2023-04-24T14:30:50;9.40;;;1.50;;
78875;SDS011;68253;52.506;5.486;2023-04-24T14:33:16;7.53;;;1.33;;
78875;SDS011;68253;52.506;5.486;2023-04-24T14:35:42;13.23;;;1.85;;
78875;SDS011;68253;52.506;5.486;2023-04-24T14:38:09;13.00;;;1.40;;
78875;SDS011;68253;52.506;5.486;2023-04-24T14:40:36;7.40;;;1.08;;
78875;SDS011;68253;52.506;5.486;2023-04-24T14:43:02;10.02;;;1.85;;
78875;SDS011;68253;52.506;5.486;2023-04-24T14:45:29;10.50;;;2.10;;
78875;SDS011;68253;52.506;5.486;2023-04-24T14:47:55;8.25;;;1.42;;
78875;SDS011;68253;52.506;5.486;2023-04-24T14:50:22;10.93;;;1.98;;
78875;SDS011;68253;52.506;5.486;2023-04-24T14:52:48;11.27;;;1.55;;
78875;SDS011;68253;52.506;5.486;2023-04-24T14:55:14;12.35;;;1.90;;
78875;SDS011;68253;52.506;5.486;2023-04-24T14:57:40;11.00;;;1.90;;
78875;SDS011;68253;52.506;5.486;2023-04-24T15:00:06;8.02;;;1.30;;
78875;SDS011;68253;52.506;5.486;2023-04-24T15:02:35;13.95;;;1.83;;
78875;SDS011;68253;52.506;5.486;2023-04-24T15:05:05;14.50;;;1.90;;
78875;SDS011;68253;52.506;5.486;2023-04-24T15:07:32;10.15;;;1.40;;
78875;SDS011;68253;52.506;5.486;2023-04-24T15:09:59;9.13;;;1.60;;